CDT,Max TemperatureF,Mean TemperatureF,Min TemperatureF,Max Dew PointF,MeanDew PointF,Min DewpointF,Max Humidity, Mean Humidity, Min Humidity, Max Sea Level PressureIn, Mean Sea Level PressureIn, Min Sea Level PressureIn, Max VisibilityMiles, Mean VisibilityMiles, Min VisibilityMiles, Max Wind SpeedMPH, Mean Wind SpeedMPH, Max Gust SpeedMPH,PrecipitationIn, CloudCover, Events, WindDirDegrees
2013-7-1,77,69,61,61,56,50,78,68,57,30.00,29.95,29.91,10,9,5,21,13,26,T,5,Rain,25
2013-7-2,71,67,62,61,58,53,90,79,67,30.05,30.01,29.97,10,9,5,20,10,25,0.07,8,Rain,30
2013-7-3,78,70,62,61,59,51,93,67,40,30.09,30.06,30.01,10,7,2,9,4,16,0.01,5,Rain,341
2013-7-4,81,71,60,64,59,56,93,71,48,30.12,30.08,30.04,10,10,6,14,6,20,0.00,0,,152
2013-7-5,82,71,60,66,64,59,100,77,54,30.12,30.07,30.02,10,5,0,14,5,22,0.00,2,Fog,167
2013-7-6,82,74,65,69,66,61,93,76,58,30.09,30.05,30.00,10,8,3,15,5,18,0.00,3,,169
2013-7-7,88,77,65,70,66,61,93,72,50,30.06,30.02,29.99,10,10,10,16,9,,0.00,0,,193
2013-7-8,88,81,73,74,71,68,84,74,63,30.10,30.04,30.00,10,10,8,17,10,24,T,2,Rain,215
2013-7-9,91,84,77,74,72,70,82,71,59,30.04,29.99,29.92,10,10,9,13,8,18,T,2,,219
2013-7-10,87,78,68,74,70,63,85,70,55,30.05,29.94,29.86,10,7,0,21,10,30,1.78,4,Fog-Rain-Thunderstorm,270
2013-7-11,81,71,61,65,60,57,93,69,45,30.08,30.05,30.00,10,9,6,15,7,22,0.00,1,,31
2013-7-12,82,68,54,65,56,50,93,65,36,30.14,30.10,30.06,10,10,7,9,4,18,0.00,0,,81
2013-7-13,83,70,57,65,62,56,93,72,51,30.13,30.10,30.06,10,10,7,14,6,22,0.00,0,,85
2013-7-14,88,76,63,72,67,61,93,72,50,30.18,30.14,30.09,10,9,4,13,6,18,0.00,1,,111
2013-7-15,88,79,69,73,71,68,97,78,59,30.26,30.22,30.17,10,9,4,13,5,18,0.00,1,,131
2013-7-16,90,80,70,73,70,68,97,75,52,30.32,30.29,30.25,10,8,2,10,4,20,0.00,1,,173
2013-7-17,92,82,71,74,70,67,93,69,44,30.34,30.27,30.20,10,9,3,8,1,17,0.00,1,,190
2013-7-18,93,84,74,74,72,70,87,70,52,30.21,30.12,30.02,10,9,5,10,4,16,0.00,1,,216
2013-7-19,93,85,76,74,73,72,88,69,49,30.01,29.93,29.85,10,8,5,16,10,21,0.00,0,,219
2013-7-20,90,81,71,73,70,66,93,72,50,29.94,29.88,29.84,10,9,7,16,7,18,0.00,2,,248
2013-7-21,79,73,67,72,68,64,97,86,74,29.97,29.92,29.86,10,4,0,16,5,18,0.58,5,Fog-Rain-Thunderstorm,144
2013-7-22,86,76,66,71,67,64,93,74,55,29.87,29.84,29.78,10,7,0,13,4,20,0.03,4,Fog-Rain-Thunderstorm,344
2013-7-23,87,76,64,71,65,60,90,69,48,29.93,29.83,29.76,10,9,2,18,9,23,0.11,1,Rain-Thunderstorm,333
2013-7-24,76,67,57,58,54,52,93,70,46,30.04,30.01,29.95,10,10,10,15,6,21,0.00,0,,31
2013-7-25,79,66,53,59,55,51,93,69,45,30.13,30.09,30.04,10,10,10,12,2,16,0.00,0,,71
2013-7-26,74,67,60,67,62,55,90,74,57,30.07,30.01,29.92,10,9,2,15,7,22,0.10,5,Rain,212
2013-7-27,72,63,54,60,53,46,90,69,47,30.00,29.96,29.93,10,10,10,20,8,28,0.00,2,,296
2013-7-28,75,63,51,53,49,47,89,64,38,30.07,30.01,29.97,10,10,10,18,7,24,0.00,2,,266
2013-7-29,79,66,52,61,55,50,93,68,43,30.17,30.14,30.07,10,10,10,10,2,16,0.00,0,,226
2013-7-30,69,67,65,67,64,59,93,86,78,30.17,30.11,30.05,10,5,1,16,7,21,0.36,7,Rain,141
2013-7-31,78,72,66,72,68,64,97,86,74,30.06,30.03,29.98,10,4,0,16,4,21,0.05,7,Fog-Rain,261